フランクフルト の空港の天気 - METARとTAF

フランクフルト国際空港 ( EDDF / FRA ) - ドイツ フランクフルト・アム・マイン
飛行場実況気象(Metar)
観測時間11/30 18:20 CET (11/30 17:20 UTC)
風向・風速東北東 3m/s
視程10km以上
天気現象
少しの雲 雲底高度 270m
全天の8割程度の雲 雲底高度 520m
全天を覆う雲 雲底高度 670m
気温7℃
湿度93%
気圧1023hPa
METAREDDF 301720Z AUTO 07005KT 9999 FEW009 BKN017 OVC022 07/06 Q1023 NOSIG
過去の天気等 Google飛行場航空写真 Wunderground天気予報

過去48時間のMETAR

飛行場予報(TAF)
発表時間: 11/30 18:00 CET (11/30 17:00 UTC)
予報対象時間: 30日19時 CET ~ 2日1時 CET
風向・風速北東 3m/s
視程10km以上
全天の4割程度の雲 雲底高度 370m
全天の8割程度の雲 雲底高度 610m
30日19時 CET ~ 1日10時 CET に一時的に
全天の8割程度の雲 雲底高度 370m
TAF EDDF 301700Z 3018/0124 05005KT 9999 SCT012 BKN020
TEMPO 3018/0109 BKN012